Weigh Scale, Pennsylvania
Current Conditions -  °F | °C
As of 4:08 PM on Thursday 18 Dec 2014 (Local Time) from KSEG Reporting Station
Overcast Overcast  
Wind Chill: 29°   Ceiling: 2900
Heat Index: 35°   Visibility: 10mi
Dew Point: 25°   Wind: 7mph
Humidity: 67%   Direction: 260°W
Pressure: 30.07"   Gusts: NA
Location:  40.7842°N, 76.5797°W
Report Text: KSEG 182108Z AUTO 26006KT 10SM OVC029 02/M04 A3007 RMK AO2 T00171039
Loading
Personal Weather Stations






























Interactive Weather Map New forecast layout! Learn more

10-Day Weather Forecast

Advertisements
Track Severe Weather on mobile